createdAt,value
2023-11-14T00:02:12.203Z,16.10
2023-11-14T00:04:58.090Z,19.02
2023-11-14T00:07:44.332Z,15.90
2023-11-14T00:10:30.949Z,18.10
2023-11-14T00:13:16.607Z,18.33
2023-11-14T00:16:02.613Z,23.10
2023-11-14T00:18:48.520Z,23.60
2023-11-14T00:21:34.116Z,27.45
2023-11-14T00:24:19.833Z,21.40
2023-11-14T00:27:05.887Z,21.55
2023-11-14T00:29:51.875Z,23.73
2023-11-14T00:32:37.824Z,19.05
2023-11-14T00:35:26.138Z,20.20
2023-11-14T00:38:11.920Z,19.73
2023-11-14T00:40:58.181Z,24.52
2023-11-14T00:43:43.725Z,23.00
2023-11-14T00:46:29.778Z,24.15
2023-11-14T00:49:15.897Z,22.25
2023-11-14T00:52:01.929Z,26.85
2023-11-14T00:54:47.922Z,24.13
2023-11-14T00:57:33.424Z,28.77
2023-11-14T01:00:19.375Z,21.15
2023-11-14T01:03:05.657Z,25.60
2023-11-14T01:05:55.688Z,22.77
2023-11-14T01:08:41.297Z,23.40
2023-11-14T01:11:26.923Z,23.52
2023-11-14T01:14:12.607Z,23.35
2023-11-14T01:16:58.524Z,24.48
2023-11-14T01:19:46.249Z,21.70
2023-11-14T01:22:33.370Z,22.45
2023-11-14T01:25:19.324Z,25.10
2023-11-14T01:28:05.165Z,26.65
2023-11-14T01:30:50.935Z,26.00
2023-11-14T01:33:36.664Z,21.40
2023-11-14T01:36:22.245Z,24.55
2023-11-14T01:39:08.219Z,24.65
2023-11-14T01:41:54.400Z,28.05
2023-11-14T01:44:40.207Z,26.95
2023-11-14T01:47:26.528Z,30.73
2023-11-14T01:50:14.420Z,24.02
2023-11-14T01:53:01.150Z,27.02
2023-11-14T01:55:46.832Z,25.92
2023-11-14T01:58:32.514Z,23.25
2023-11-14T02:01:19.536Z,25.35
2023-11-14T02:04:11.850Z,32.42
2023-11-14T02:06:57.922Z,25.65
2023-11-14T02:09:43.832Z,24.88
2023-11-14T02:12:32.457Z,26.58
2023-11-14T02:15:22.656Z,29.58
2023-11-14T02:18:09.536Z,30.08
2023-11-14T02:20:55.834Z,24.58
2023-11-14T02:23:44.156Z,25.20
2023-11-14T02:26:30.026Z,27.92
2023-11-14T02:29:23.893Z,25.45
2023-11-14T02:32:10.131Z,24.70
2023-11-14T02:34:56.281Z,24.70
2023-11-14T02:37:42.108Z,28.52
2023-11-14T02:40:28.047Z,26.52
2023-11-14T02:43:13.465Z,23.48
2023-11-14T02:45:59.071Z,23.33
2023-11-14T02:48:45.891Z,26.50
2023-11-14T02:51:31.800Z,23.17
2023-11-14T02:54:17.596Z,25.77
2023-11-14T02:57:06.458Z,26.98
2023-11-14T02:59:52.368Z,27.88
2023-11-14T03:02:38.651Z,27.58
2023-11-14T03:05:24.164Z,24.25
2023-11-14T03:08:09.786Z,23.45
2023-11-14T03:10:56.409Z,23.80
2023-11-14T03:13:44.348Z,23.27
2023-11-14T03:16:29.974Z,22.70
2023-11-14T03:19:15.603Z,20.08
2023-11-14T03:22:01.095Z,22.85
2023-11-14T03:24:46.773Z,19.63
2023-11-14T03:27:32.224Z,20.58
2023-11-14T03:30:19.750Z,20.45
2023-11-14T03:33:05.715Z,20.15
2023-11-14T03:35:51.967Z,19.70
2023-11-14T03:38:38.102Z,17.23
2023-11-14T03:41:23.810Z,21.27
2023-11-14T03:44:09.476Z,20.08
2023-11-14T03:46:55.444Z,23.40
2023-11-14T03:49:41.408Z,20.10
2023-11-14T03:52:27.244Z,17.38
2023-11-14T03:55:13.140Z,18.33
2023-11-14T03:57:58.801Z,14.35
2023-11-14T04:00:44.569Z,16.63
2023-11-14T04:03:29.973Z,14.88
2023-11-14T04:06:15.466Z,14.60
2023-11-14T04:09:01.136Z,16.15
2023-11-14T04:11:48.527Z,20.30
2023-11-14T04:14:34.310Z,17.17
2023-11-14T04:17:20.073Z,17.38
2023-11-14T04:20:08.544Z,20.23
2023-11-14T04:22:54.259Z,16.27
2023-11-14T04:25:39.655Z,19.20
2023-11-14T04:28:25.282Z,13.57
2023-11-14T04:31:11.296Z,21.08
2023-11-14T04:33:57.062Z,15.85
2023-11-14T04:36:43.264Z,9.63
2023-11-14T04:39:28.983Z,16.50
2023-11-14T04:42:14.550Z,14.88
2023-11-14T04:45:00.281Z,13.43
2023-11-14T04:47:46.678Z,14.85
2023-11-14T04:50:32.296Z,12.35
2023-11-14T04:53:18.068Z,14.40
2023-11-14T04:56:04.206Z,16.20
2023-11-14T04:58:50.837Z,16.63
2023-11-14T05:01:36.496Z,16.08
2023-11-14T05:04:22.148Z,12.85
2023-11-14T05:07:07.686Z,14.48
2023-11-14T05:09:53.441Z,14.80
2023-11-14T05:12:39.234Z,11.15
2023-11-14T05:15:24.762Z,11.75
2023-11-14T05:18:10.443Z,11.45
2023-11-14T05:20:56.250Z,13.75
2023-11-14T05:23:41.671Z,11.38
2023-11-14T05:26:27.402Z,22.58
2023-11-14T05:29:13.051Z,22.15
2023-11-14T05:31:58.640Z,19.80
2023-11-14T05:34:45.997Z,18.15
2023-11-14T05:37:31.592Z,22.42
2023-11-14T05:40:17.418Z,23.23
2023-11-14T05:43:04.100Z,18.52
2023-11-14T05:45:52.234Z,14.35
2023-11-14T05:48:39.468Z,14.30
2023-11-14T05:51:25.838Z,14.52
2023-11-14T05:54:11.380Z,17.05
2023-11-14T05:56:57.357Z,17.05
2023-11-14T05:59:42.978Z,17.70
2023-11-14T06:02:28.564Z,20.00
2023-11-14T06:05:14.519Z,11.70
2023-11-14T06:08:01.638Z,15.05
2023-11-14T06:10:47.445Z,14.25
2023-11-14T06:13:35.372Z,15.73
2023-11-14T06:16:22.644Z,12.98
2023-11-14T06:19:09.773Z,17.20
2023-11-14T06:21:55.733Z,18.17
2023-11-14T06:24:41.224Z,17.60
2023-11-14T06:27:26.709Z,14.98
2023-11-14T06:30:12.873Z,17.65
2023-11-14T06:32:58.423Z,16.52
2023-11-14T06:35:44.102Z,13.70
2023-11-14T06:38:34.083Z,12.32
2023-11-14T06:41:20.060Z,17.48
2023-11-14T06:44:08.172Z,16.92
2023-11-14T06:46:53.681Z,14.95
2023-11-14T06:49:41.626Z,15.68
2023-11-14T06:52:27.458Z,17.98
2023-11-14T06:55:13.336Z,14.43
2023-11-14T06:57:59.578Z,20.98
2023-11-14T07:00:46.095Z,22.33
2023-11-14T07:03:32.469Z,15.15
2023-11-14T07:06:20.447Z,20.73
2023-11-14T07:09:06.324Z,21.13
2023-11-14T07:11:55.166Z,17.23
2023-11-14T07:14:41.060Z,20.38
2023-11-14T07:17:26.874Z,19.73
2023-11-14T07:20:16.339Z,25.45
2023-11-14T07:23:03.400Z,19.40
2023-11-14T07:25:49.222Z,20.60
2023-11-14T07:28:35.489Z,16.75
2023-11-14T07:31:21.069Z,23.05
2023-11-14T07:34:06.775Z,14.80
2023-11-14T07:36:53.632Z,17.05
2023-11-14T07:39:39.073Z,18.17
2023-11-14T07:42:27.865Z,13.60
2023-11-14T07:45:15.173Z,22.85
2023-11-14T07:48:01.152Z,21.52
2023-11-14T07:50:48.046Z,15.05
2023-11-14T07:53:33.571Z,19.90
2023-11-14T07:56:19.074Z,16.30
2023-11-14T07:59:04.911Z,17.02
2023-11-14T08:01:50.867Z,17.80
2023-11-14T08:04:36.362Z,16.45
2023-11-14T08:07:22.256Z,12.07
2023-11-14T08:10:08.620Z,17.67
2023-11-14T08:12:54.880Z,17.67
2023-11-14T08:15:40.565Z,19.02
2023-11-14T08:18:26.074Z,15.77
2023-11-14T08:21:11.696Z,14.95
2023-11-14T08:23:57.344Z,18.33
2023-11-14T08:26:42.934Z,18.33
2023-11-14T08:29:28.558Z,14.23
2023-11-14T08:32:17.191Z,14.35
2023-11-14T08:35:06.083Z,11.82
2023-11-14T08:37:54.524Z,17.23
2023-11-14T08:40:40.276Z,13.15
2023-11-14T08:43:26.154Z,15.50
2023-11-14T08:46:12.479Z,14.23
2023-11-14T08:48:58.536Z,12.07
2023-11-14T08:51:43.970Z,15.18
2023-11-14T08:54:29.809Z,14.88
2023-11-14T08:57:15.678Z,14.02
2023-11-14T09:00:04.881Z,11.85
2023-11-14T09:02:50.957Z,14.65
2023-11-14T09:05:36.938Z,16.23
2023-11-14T09:08:24.078Z,18.35
2023-11-14T09:11:10.017Z,11.25
2023-11-14T09:13:57.710Z,13.70
2023-11-14T09:16:43.718Z,20.13
2023-11-14T09:19:29.157Z,13.10
2023-11-14T09:22:14.514Z,16.00
2023-11-14T09:25:02.576Z,10.90
2023-11-14T09:27:48.161Z,12.27
2023-11-14T09:30:34.870Z,11.07
2023-11-14T09:33:20.872Z,10.98
2023-11-14T09:36:07.889Z,16.42
2023-11-14T09:38:53.644Z,12.95
2023-11-14T09:41:39.697Z,17.35
2023-11-14T09:44:28.221Z,9.57
2023-11-14T09:47:15.448Z,11.80
2023-11-14T09:50:01.224Z,10.82
2023-11-14T09:52:47.220Z,10.40
2023-11-14T09:55:34.798Z,13.05
2023-11-14T09:58:22.327Z,17.27
2023-11-14T10:01:07.841Z,11.65
2023-11-14T10:03:53.502Z,11.38
2023-11-14T10:06:43.179Z,16.27
2023-11-14T10:09:29.127Z,11.63
2023-11-14T10:12:36.886Z,10.63
2023-11-14T10:15:31.917Z,13.38
2023-11-14T10:18:32.781Z,14.05
2023-11-14T10:21:33.857Z,18.02
2023-11-14T10:24:21.122Z,15.75
2023-11-14T10:27:06.704Z,18.42
2023-11-14T10:29:56.058Z,22.00
2023-11-14T10:32:55.659Z,17.08
2023-11-14T10:35:42.621Z,21.00
2023-11-14T10:38:32.271Z,18.98
2023-11-14T10:41:25.286Z,14.35
2023-11-14T10:44:13.902Z,15.07
2023-11-14T10:47:00.069Z,15.35
2023-11-14T10:49:49.085Z,14.60
2023-11-14T10:52:37.561Z,15.93
2023-11-14T10:55:25.332Z,12.63
2023-11-14T10:58:13.195Z,17.30
2023-11-14T11:01:00.351Z,13.80
2023-11-14T11:03:46.532Z,17.45
2023-11-14T11:06:33.019Z,12.00
2023-11-14T11:09:20.369Z,13.32
2023-11-14T11:12:09.695Z,17.42
2023-11-14T11:14:55.695Z,17.65
2023-11-14T11:17:45.568Z,11.18
2023-11-14T11:20:33.835Z,13.77
2023-11-14T11:23:20.187Z,15.98
2023-11-14T11:26:15.169Z,18.75
2023-11-14T11:29:01.292Z,16.00
2023-11-14T11:32:29.298Z,13.98
2023-11-14T11:35:21.628Z,16.25
2023-11-14T11:38:12.509Z,22.95
2023-11-14T11:41:14.805Z,18.58
2023-11-14T11:44:10.927Z,12.65
2023-11-14T11:46:57.464Z,16.92
2023-11-14T11:49:43.780Z,13.18
2023-11-14T11:52:30.354Z,10.18
2023-11-14T11:55:16.867Z,15.73
2023-11-14T11:58:09.458Z,18.80
2023-11-14T12:01:08.519Z,18.50
2023-11-14T12:04:02.115Z,14.30
2023-11-14T12:06:48.535Z,16.83
2023-11-14T12:09:34.272Z,18.38
2023-11-14T12:12:19.877Z,17.52
2023-11-14T12:15:07.245Z,14.30
2023-11-14T12:17:55.006Z,13.90
2023-11-14T12:20:41.015Z,12.57
2023-11-14T12:23:26.689Z,11.70
2023-11-14T12:26:14.239Z,14.93
2023-11-14T12:29:18.639Z,14.75
2023-11-14T12:32:06.136Z,15.52
2023-11-14T12:35:00.160Z,15.38
2023-11-14T12:37:49.621Z,13.30
2023-11-14T12:40:34.950Z,15.30
2023-11-14T12:43:20.733Z,22.10
2023-11-14T12:46:06.373Z,20.13
2023-11-14T12:49:17.876Z,20.35
2023-11-14T12:52:06.725Z,14.85
2023-11-14T12:54:52.533Z,18.92
2023-11-14T12:57:39.569Z,15.52
2023-11-14T13:00:25.019Z,15.45
2023-11-14T13:03:10.703Z,17.33
2023-11-14T13:05:56.675Z,14.32
2023-11-14T13:08:42.188Z,15.57
2023-11-14T13:11:27.935Z,16.20
2023-11-14T13:14:16.507Z,17.83
2023-11-14T13:17:02.563Z,16.27
2023-11-14T13:19:48.873Z,15.13
2023-11-14T13:22:36.201Z,16.05
2023-11-14T13:25:22.695Z,17.20
2023-11-14T13:28:09.368Z,15.93
2023-11-14T13:30:54.790Z,18.45
2023-11-14T13:33:40.406Z,14.98
2023-11-14T13:36:27.382Z,16.75
2023-11-14T13:39:13.886Z,17.98
2023-11-14T13:41:59.793Z,19.65
2023-11-14T13:44:47.493Z,14.60
2023-11-14T13:47:33.125Z,13.77
2023-11-14T13:50:19.203Z,11.20
2023-11-14T13:53:05.928Z,12.05
2023-11-14T13:55:53.055Z,14.55
2023-11-14T13:58:39.039Z,16.02
2023-11-14T14:01:26.549Z,16.25
2023-11-14T14:04:11.799Z,15.80
2023-11-14T14:06:57.376Z,11.60
2023-11-14T14:09:42.831Z,12.52
2023-11-14T14:12:29.174Z,11.15
2023-11-14T14:15:18.066Z,11.48
2023-11-14T14:18:04.150Z,11.43
2023-11-14T14:20:57.148Z,9.45
2023-11-14T14:23:43.043Z,13.73
2023-11-14T14:26:30.661Z,9.07
2023-11-14T14:29:16.478Z,10.88
2023-11-14T14:32:02.935Z,17.13
2023-11-14T14:34:48.689Z,14.38
2023-11-14T14:37:34.353Z,11.90
2023-11-14T14:40:21.426Z,15.25
2023-11-14T14:43:07.343Z,15.90
2023-11-14T14:45:55.707Z,12.70
2023-11-14T14:48:41.939Z,13.27
2023-11-14T14:51:28.991Z,16.15
2023-11-14T14:54:15.524Z,9.68
2023-11-14T14:57:02.493Z,10.90
2023-11-14T14:59:48.233Z,9.70
2023-11-14T15:02:33.843Z,11.15
2023-11-14T15:05:23.499Z,12.18
2023-11-14T15:08:09.895Z,13.52
2023-11-14T15:10:55.715Z,12.55
2023-11-14T15:13:42.519Z,11.30
2023-11-14T15:16:28.402Z,11.35
2023-11-14T15:19:14.553Z,9.43
2023-11-14T15:22:01.288Z,11.68
2023-11-14T15:24:49.947Z,13.50
2023-11-14T15:27:35.807Z,10.93
2023-11-14T15:30:21.401Z,9.43
2023-11-14T15:33:08.018Z,8.85
2023-11-14T15:35:53.996Z,15.82
2023-11-14T15:38:39.601Z,9.93
2023-11-14T15:41:25.827Z,13.43
2023-11-14T15:44:12.298Z,8.82
2023-11-14T15:46:58.048Z,7.38
2023-11-14T15:49:45.828Z,7.85
2023-11-14T15:52:31.343Z,10.15
2023-11-14T15:55:16.812Z,11.70
2023-11-14T15:58:03.210Z,10.55
2023-11-14T16:00:49.012Z,13.32
2023-11-14T16:03:35.997Z,11.55
2023-11-14T16:06:22.014Z,11.20
2023-11-14T16:09:07.888Z,12.05
2023-11-14T16:11:53.697Z,10.32
2023-11-14T16:14:39.392Z,7.70
2023-11-14T16:17:26.584Z,11.02
2023-11-14T16:20:12.659Z,10.77
2023-11-14T16:22:58.701Z,9.95
2023-11-14T16:25:44.923Z,6.75
2023-11-14T16:28:30.477Z,7.05
2023-11-14T16:31:16.258Z,14.82
2023-11-14T16:34:02.278Z,10.00
2023-11-14T16:36:47.989Z,6.10
2023-11-14T16:39:33.508Z,6.75
2023-11-14T16:42:20.378Z,8.18
2023-11-14T16:45:06.840Z,7.03
2023-11-14T16:47:52.629Z,9.90
2023-11-14T16:50:38.264Z,10.00
2023-11-14T16:53:23.831Z,11.50
2023-11-14T16:56:11.792Z,13.32
2023-11-14T16:59:00.099Z,11.32
2023-11-14T17:01:47.920Z,12.80
2023-11-14T17:04:34.439Z,11.23
2023-11-14T17:07:21.121Z,8.57
2023-11-14T17:10:08.431Z,8.10
2023-11-14T17:12:54.611Z,7.32
2023-11-14T17:15:42.844Z,9.60
2023-11-14T17:18:29.115Z,8.57
2023-11-14T17:21:15.723Z,11.32
2023-11-14T17:24:01.859Z,15.20
2023-11-14T17:26:49.313Z,15.88
2023-11-14T17:29:35.661Z,11.38
2023-11-14T17:32:21.383Z,16.85
2023-11-14T17:35:09.830Z,13.68
2023-11-14T17:37:55.523Z,17.15
2023-11-14T17:40:42.535Z,12.40
2023-11-14T17:43:28.764Z,15.45
2023-11-14T17:46:14.548Z,14.98
2023-11-14T17:49:00.418Z,14.75
2023-11-14T17:51:49.679Z,18.70
2023-11-14T17:54:35.905Z,18.58
2023-11-14T17:57:23.827Z,17.83
2023-11-14T18:00:10.049Z,19.95
2023-11-14T18:02:58.701Z,18.83
2023-11-14T18:05:49.017Z,15.80
2023-11-14T18:08:36.191Z,18.77
2023-11-14T18:11:22.245Z,14.13
2023-11-14T18:14:07.864Z,13.10
2023-11-14T18:16:53.489Z,10.93
2023-11-14T18:19:39.788Z,11.65
2023-11-14T18:22:25.599Z,11.00
2023-11-14T18:25:11.968Z,8.50
2023-11-14T18:28:00.735Z,10.50
2023-11-14T18:30:46.577Z,8.85
2023-11-14T18:33:32.468Z,9.88
2023-11-14T18:36:18.003Z,9.65
2023-11-14T18:39:04.512Z,8.60
2023-11-14T18:41:52.488Z,10.25
2023-11-14T18:44:50.672Z,10.43
2023-11-14T18:47:45.541Z,10.38
2023-11-14T18:50:31.359Z,11.75
2023-11-14T18:53:18.389Z,12.20
2023-11-14T18:56:06.298Z,15.30
2023-11-14T18:58:52.017Z,17.02
2023-11-14T19:01:38.832Z,19.67
2023-11-14T19:04:24.858Z,15.85
2023-11-14T19:07:11.052Z,14.05
2023-11-14T19:09:56.867Z,11.32
2023-11-14T19:12:43.345Z,12.70
2023-11-14T19:15:29.204Z,12.23
2023-11-14T19:18:18.908Z,10.68
2023-11-14T19:21:39.984Z,12.07
2023-11-14T19:24:11.169Z,12.23
2023-11-14T19:26:56.964Z,12.23
2023-11-14T19:29:45.010Z,14.82
2023-11-14T19:32:30.743Z,13.93
2023-11-14T19:35:17.449Z,12.27
2023-11-14T19:38:05.214Z,12.25
2023-11-14T19:40:53.496Z,10.88
2023-11-14T19:43:39.914Z,13.65
2023-11-14T19:46:25.791Z,15.85
2023-11-14T19:49:11.550Z,12.10
2023-11-14T19:52:00.060Z,16.27
2023-11-14T19:54:46.176Z,16.17
2023-11-14T19:57:31.984Z,17.95
2023-11-14T20:00:20.013Z,16.55
2023-11-14T20:03:07.126Z,14.57
2023-11-14T20:05:53.026Z,13.30
2023-11-14T20:08:39.108Z,12.13
2023-11-14T20:11:25.071Z,12.45
2023-11-14T20:14:11.167Z,10.80
2023-11-14T20:16:57.062Z,15.35
2023-11-14T20:19:42.664Z,17.63
2023-11-14T20:22:32.735Z,13.63
2023-11-14T20:25:19.736Z,11.25
2023-11-14T20:28:07.249Z,11.70
2023-11-14T20:30:53.165Z,19.10
2023-11-14T20:33:39.149Z,11.93
2023-11-14T20:36:25.335Z,11.05
2023-11-14T20:39:16.542Z,19.05
2023-11-14T20:42:02.783Z,16.73
2023-11-14T20:44:48.463Z,15.43
2023-11-14T20:47:36.493Z,14.30
2023-11-14T20:50:23.383Z,17.58
2023-11-14T20:53:09.158Z,13.95
2023-11-14T20:55:54.987Z,13.40
2023-11-14T20:58:40.670Z,13.38
2023-11-14T21:01:27.031Z,11.85
2023-11-14T21:04:14.188Z,13.13
2023-11-14T21:07:00.228Z,15.45
2023-11-14T21:09:46.137Z,15.00
2023-11-14T21:12:34.375Z,13.70
2023-11-14T21:15:19.922Z,13.15
2023-11-14T21:18:08.156Z,15.27
2023-11-14T21:20:54.013Z,14.40
2023-11-14T21:23:40.788Z,13.45
2023-11-14T21:26:28.666Z,20.80
2023-11-14T21:29:14.092Z,11.25
2023-11-14T21:32:01.183Z,15.55
2023-11-14T21:34:47.102Z,12.75
2023-11-14T21:37:32.634Z,12.23
2023-11-14T21:40:18.180Z,11.93
2023-11-14T21:43:03.917Z,13.05
2023-11-14T21:45:53.689Z,20.92
2023-11-14T21:48:39.637Z,22.55
2023-11-14T21:51:25.208Z,19.63
2023-11-14T21:54:10.906Z,15.88
2023-11-14T21:56:59.416Z,18.05
2023-11-14T21:59:45.210Z,12.02
2023-11-14T22:02:31.428Z,13.88
2023-11-14T22:05:20.396Z,16.65
2023-11-14T22:08:06.352Z,13.48
2023-11-14T22:10:52.365Z,12.75
2023-11-14T22:13:38.147Z,16.60
2023-11-14T22:16:23.856Z,22.25
2023-11-14T22:19:10.414Z,13.48
2023-11-14T22:21:56.310Z,13.65
2023-11-14T22:24:41.939Z,10.70
2023-11-14T22:27:27.414Z,13.02
2023-11-14T22:30:13.916Z,13.27
2023-11-14T22:32:59.845Z,11.65
2023-11-14T22:35:45.862Z,17.98
2023-11-14T22:38:31.615Z,15.82
2023-11-14T22:41:17.544Z,13.98
2023-11-14T22:44:03.636Z,12.50
2023-11-14T22:46:49.840Z,18.42
2023-11-14T22:49:37.117Z,17.58
2023-11-14T22:52:22.971Z,10.82
2023-11-14T22:55:08.999Z,10.35
2023-11-14T22:57:54.578Z,16.27
2023-11-14T23:00:46.309Z,10.15
2023-11-14T23:03:34.198Z,11.87
2023-11-14T23:06:21.832Z,9.93
2023-11-14T23:09:15.744Z,14.27
2023-11-14T23:12:04.945Z,9.05
2023-11-14T23:14:50.710Z,16.08
2023-11-14T23:17:37.051Z,13.20
2023-11-14T23:20:23.117Z,13.32
2023-11-14T23:23:09.405Z,11.35
2023-11-14T23:25:55.309Z,15.10
2023-11-14T23:28:41.016Z,12.05
2023-11-14T23:31:27.155Z,11.60
2023-11-14T23:34:12.709Z,11.27
2023-11-14T23:36:59.503Z,12.10
2023-11-14T23:39:45.703Z,12.73
2023-11-14T23:42:34.266Z,9.45
2023-11-14T23:45:20.485Z,12.68
2023-11-14T23:48:08.173Z,11.07
2023-11-14T23:50:53.911Z,11.95
2023-11-14T23:53:39.958Z,11.55
2023-11-14T23:56:25.521Z,11.23
2023-11-14T23:59:11.274Z,12.30
